createdAt,value
2022-11-03T00:09:56.338Z,101145.42
2022-11-03T00:19:57.969Z,101150.38
2022-11-03T00:29:59.073Z,101151.59
2022-11-03T00:40:00.240Z,101144.42
2022-11-03T00:50:01.327Z,101145.71
2022-11-03T01:00:02.757Z,101139.80
2022-11-03T01:10:04.232Z,101150.17
2022-11-03T01:20:06.894Z,101160.81
2022-11-03T01:30:08.442Z,101173.55
2022-11-03T01:40:10.677Z,101183.41
2022-11-03T01:50:16.634Z,101167.38
2022-11-03T02:00:17.779Z,101165.65
2022-11-03T02:10:19.955Z,101162.39
2022-11-03T02:20:24.735Z,101175.56
2022-11-03T02:30:33.146Z,101187.55
2022-11-03T02:40:40.533Z,101193.34
2022-11-03T02:50:41.664Z,101198.48
2022-11-03T03:00:49.661Z,101202.27
2022-11-03T03:10:52.356Z,101208.40
2022-11-03T03:21:00.967Z,101210.85
2022-11-03T03:31:06.911Z,101212.25
2022-11-03T03:41:12.690Z,101215.01
2022-11-03T03:51:17.418Z,101216.79
2022-11-03T04:01:18.734Z,101224.33
2022-11-03T04:11:38.838Z,101224.23
2022-11-03T04:21:58.997Z,101223.86
2022-11-03T04:32:00.540Z,101227.00
2022-11-03T04:42:01.940Z,101229.73
2022-11-03T04:52:05.429Z,101234.42
2022-11-03T05:02:13.820Z,101246.95
2022-11-03T05:12:16.297Z,101249.74
2022-11-03T05:22:21.339Z,101249.63
2022-11-03T05:32:29.714Z,101251.18
2022-11-03T05:42:39.033Z,101252.79
2022-11-03T05:52:43.226Z,101255.30
2022-11-03T06:02:46.076Z,101260.72
2022-11-03T06:12:47.414Z,101266.63
2022-11-03T06:22:50.691Z,101275.90
2022-11-03T06:32:53.282Z,101283.93
2022-11-03T06:42:58.049Z,101285.82
2022-11-03T06:53:03.209Z,101284.52
2022-11-03T07:03:10.601Z,101279.91
2022-11-03T07:13:33.567Z,101281.82
2022-11-03T07:23:35.490Z,101280.18
2022-11-03T07:33:36.680Z,101281.98
2022-11-03T07:43:38.317Z,101270.45
2022-11-03T07:53:44.985Z,101264.73
2022-11-03T08:03:47.716Z,101262.62
2022-11-03T08:13:50.591Z,101262.38
2022-11-03T08:23:51.877Z,101267.52
2022-11-03T09:18:51.329Z,101256.58
2022-11-03T09:28:53.199Z,101257.06
2022-11-03T09:38:55.079Z,101250.05
2022-11-03T09:48:59.273Z,101252.73
2022-11-03T09:59:01.781Z,101238.40
2022-11-03T10:09:04.803Z,101230.45
2022-11-03T10:19:18.410Z,101217.45
2022-11-03T10:39:32.082Z,101198.88
2022-11-03T10:49:43.324Z,101194.00
2022-11-03T10:59:49.137Z,101187.79
2022-11-03T11:09:51.624Z,101173.73
2022-11-03T11:20:18.486Z,101156.71
2022-11-03T11:30:20.401Z,101147.02
2022-11-03T11:40:25.150Z,101131.27
2022-11-03T11:50:29.778Z,101123.41
2022-11-03T12:00:34.961Z,101108.05
2022-11-03T12:10:36.888Z,101099.73
2022-11-03T12:36:34.977Z,101078.63
2022-11-03T12:46:36.916Z,101074.04
2022-11-03T12:56:38.898Z,101060.56
2022-11-03T13:06:40.956Z,101053.52
2022-11-03T13:16:42.985Z,101045.16
2022-11-03T13:26:44.863Z,101038.50
2022-11-03T13:36:46.704Z,101039.30
2022-11-03T13:46:48.692Z,101040.86
2022-11-03T14:07:12.503Z,101029.99
2022-11-03T15:30:23.451Z,100985.86
2022-11-03T15:40:25.831Z,100985.10
2022-11-03T15:50:27.225Z,100973.83
2022-11-03T16:00:30.893Z,100965.08
2022-11-03T16:21:49.418Z,100945.11
2022-11-03T16:31:56.615Z,100937.45
2022-11-03T16:42:03.525Z,100927.94
2022-11-03T16:52:14.526Z,100926.35
2022-11-03T17:02:27.367Z,100916.84
2022-11-03T17:12:33.535Z,100898.17
2022-11-03T17:22:34.932Z,100880.23
2022-11-03T17:33:13.871Z,100863.25
2022-11-03T17:43:25.077Z,100849.38
2022-11-03T17:53:31.742Z,100852.20
2022-11-03T18:03:33.100Z,100851.20
2022-11-03T18:13:38.624Z,100852.28
2022-11-03T18:23:41.701Z,100851.73
2022-11-03T18:33:43.091Z,100852.50
2022-11-03T18:43:44.383Z,100840.27
2022-11-03T18:53:46.256Z,100831.86
2022-11-03T19:03:47.956Z,100807.02
2022-11-03T19:13:49.466Z,100799.26
2022-11-03T19:23:54.160Z,100789.98
2022-11-03T19:33:59.902Z,100786.98
2022-11-03T19:44:07.910Z,100769.85
2022-11-03T19:54:16.216Z,100764.46
2022-11-03T20:04:17.547Z,100762.16
2022-11-03T20:14:26.226Z,100758.30
2022-11-03T20:24:27.701Z,100734.26
2022-11-03T20:34:29.072Z,100717.22
2022-11-03T20:44:30.496Z,100697.94
2022-11-03T20:54:32.490Z,100683.33
2022-11-03T21:04:33.949Z,100673.55
2022-11-03T21:14:35.840Z,100645.63
2022-11-03T21:24:37.347Z,100628.53
2022-11-03T21:34:39.103Z,100612.82
2022-11-03T21:44:40.329Z,100607.50
2022-11-03T21:54:42.514Z,100605.35
2022-11-03T22:04:46.847Z,100597.02
2022-11-03T22:15:06.996Z,100587.67
2022-11-03T22:25:27.519Z,100572.94
2022-11-03T22:35:47.719Z,100568.73
2022-11-03T22:45:53.835Z,100563.05
2022-11-03T22:55:54.980Z,100560.36
2022-11-03T23:06:00.137Z,100557.92
2022-11-03T23:16:09.460Z,100538.38
2022-11-03T23:26:10.768Z,100525.08
2022-11-03T23:36:13.969Z,100518.54
2022-11-03T23:46:37.244Z,100504.48
2022-11-03T23:57:02.868Z,100500.98
